Port Republic, Virginia
Current Conditions -  °F | °C
As of 6:55 AM on Monday 24 Nov 2014 (Local Time) from KSHD Reporting Station
Clear Clear  
Wind Chill: 51°   Ceiling: Unl
Heat Index: 51°   Visibility: 10mi
Dew Point: 48°   Wind: 6mph
Humidity: 92%   Direction: 210°SSW
Pressure: 29.67"   Gusts: NA
Location:  38.3°N, 78.81°W
Report Text: KSHD 241155Z AUTO 21005KT 10SM CLR 10/09 A2967 RMK AO2 7//// T01030091 10130 20089
Loading
Personal Weather Stations






























Interactive Weather Map New forecast layout! Learn more

10-Day Weather Forecast

Advertisements
Track Severe Weather on mobile